Terminal Aerodrome Forecast
Issued by NWS

Home | Current Version | Previous Version | Text Only | Print | Product List | Glossary On
Versions: 1 2 3 4 5 6 7 8 9 10 11 12 13 14 15 16 17 18 19 20 21 22 23 24 25 26 27 28 29 30 31 32 33
000
FTUS43 KPAH 011406 AAA
TAFOWB
TAF AMD
KOWB 011406Z 0114/0212 23006KT 5SM BR VCSH FEW045 BKN150
     FM011700 24006KT P6SM -SHRA OVC060
     FM020000 19006KT 6SM -SHRA VCTS OVC050CB
     FM020600 19006KT 3SM -SHRA SCT010 OVC030 PROB30 0206/0212 1SM
      TSRA OVC010CB=

USA.gov is the U.S. government's official web portal to all federal, state and local government web resources and services.